sensor_id;sensor_type;location;lat;lon;timestamp;P1;durP1;ratioP1;P2;durP2;ratioP2
36315;SDS011;22343;50.820;2.666;2023-04-09T00:00:17;220.97;;;35.60;;
36315;SDS011;22343;50.820;2.666;2023-04-09T00:03:01;364.70;;;39.67;;
36315;SDS011;22343;50.820;2.666;2023-04-09T00:05:45;352.53;;;38.13;;
36315;SDS011;22343;50.820;2.666;2023-04-09T00:08:30;262.13;;;36.30;;
36315;SDS011;22343;50.820;2.666;2023-04-09T00:11:14;195.73;;;34.73;;
36315;SDS011;22343;50.820;2.666;2023-04-09T00:13:58;330.20;;;38.63;;
36315;SDS011;22343;50.820;2.666;2023-04-09T00:16:43;224.80;;;36.03;;
36315;SDS011;22343;50.820;2.666;2023-04-09T00:19:27;215.83;;;33.87;;
36315;SDS011;22343;50.820;2.666;2023-04-09T00:22:11;180.50;;;33.50;;
36315;SDS011;22343;50.820;2.666;2023-04-09T00:24:55;135.97;;;30.57;;
36315;SDS011;22343;50.820;2.666;2023-04-09T00:27:40;181.67;;;33.83;;
36315;SDS011;22343;50.820;2.666;2023-04-09T00:30:24;299.80;;;38.83;;
36315;SDS011;22343;50.820;2.666;2023-04-09T00:33:11;173.27;;;33.93;;
36315;SDS011;22343;50.820;2.666;2023-04-09T00:35:56;141.87;;;35.07;;
36315;SDS011;22343;50.820;2.666;2023-04-09T00:38:40;155.33;;;34.57;;
36315;SDS011;22343;50.820;2.666;2023-04-09T00:41:24;337.97;;;40.33;;
36315;SDS011;22343;50.820;2.666;2023-04-09T00:44:09;262.00;;;39.30;;
36315;SDS011;22343;50.820;2.666;2023-04-09T00:46:53;349.13;;;41.30;;
36315;SDS011;22343;50.820;2.666;2023-04-09T00:49:38;204.73;;;36.67;;
36315;SDS011;22343;50.820;2.666;2023-04-09T00:52:23;226.07;;;37.83;;
36315;SDS011;22343;50.820;2.666;2023-04-09T00:55:08;242.37;;;37.80;;
36315;SDS011;22343;50.820;2.666;2023-04-09T00:57:53;212.13;;;37.07;;
36315;SDS011;22343;50.820;2.666;2023-04-09T01:00:37;262.57;;;40.00;;
36315;SDS011;22343;50.820;2.666;2023-04-09T01:03:21;357.50;;;41.93;;
36315;SDS011;22343;50.820;2.666;2023-04-09T01:06:07;263.23;;;37.20;;
36315;SDS011;22343;50.820;2.666;2023-04-09T01:12:13;299.47;;;38.70;;
36315;SDS011;22343;50.820;2.666;2023-04-09T01:15:05;268.80;;;36.27;;
36315;SDS011;22343;50.820;2.666;2023-04-09T01:20:52;307.40;;;38.53;;
36315;SDS011;22343;50.820;2.666;2023-04-09T01:23:46;269.20;;;38.70;;
36315;SDS011;22343;50.820;2.666;2023-04-09T01:29:49;320.07;;;41.03;;
36315;SDS011;22343;50.820;2.666;2023-04-09T01:32:36;205.13;;;38.20;;
36315;SDS011;22343;50.820;2.666;2023-04-09T01:35:21;301.80;;;39.63;;
36315;SDS011;22343;50.820;2.666;2023-04-09T01:38:07;362.33;;;42.83;;
36315;SDS011;22343;50.820;2.666;2023-04-09T01:40:52;224.43;;;38.60;;
36315;SDS011;22343;50.820;2.666;2023-04-09T01:43:37;358.80;;;43.63;;
36315;SDS011;22343;50.820;2.666;2023-04-09T01:46:22;374.67;;;44.50;;
36315;SDS011;22343;50.820;2.666;2023-04-09T01:49:08;227.40;;;40.33;;
36315;SDS011;22343;50.820;2.666;2023-04-09T01:51:53;260.83;;;41.90;;
36315;SDS011;22343;50.820;2.666;2023-04-09T01:54:37;277.73;;;43.03;;
36315;SDS011;22343;50.820;2.666;2023-04-09T01:57:22;482.97;;;49.33;;
36315;SDS011;22343;50.820;2.666;2023-04-09T02:00:06;323.47;;;41.60;;
36315;SDS011;22343;50.820;2.666;2023-04-09T02:05:54;425.77;;;42.77;;
36315;SDS011;22343;50.820;2.666;2023-04-09T02:08:46;372.07;;;44.27;;
36315;SDS011;22343;50.820;2.666;2023-04-09T02:11:31;345.33;;;41.97;;
36315;SDS011;22343;50.820;2.666;2023-04-09T02:14:16;211.03;;;38.90;;
36315;SDS011;22343;50.820;2.666;2023-04-09T02:17:02;188.27;;;38.00;;
36315;SDS011;22343;50.820;2.666;2023-04-09T02:19:46;266.47;;;40.67;;
36315;SDS011;22343;50.820;2.666;2023-04-09T02:22:31;344.70;;;42.03;;
36315;SDS011;22343;50.820;2.666;2023-04-09T02:25:16;267.07;;;39.90;;
36315;SDS011;22343;50.820;2.666;2023-04-09T02:28:00;282.47;;;41.27;;
36315;SDS011;22343;50.820;2.666;2023-04-09T02:30:44;240.10;;;38.93;;
36315;SDS011;22343;50.820;2.666;2023-04-09T02:33:28;233.60;;;40.07;;
36315;SDS011;22343;50.820;2.666;2023-04-09T02:36:13;307.27;;;41.20;;
36315;SDS011;22343;50.820;2.666;2023-04-09T02:38:57;215.20;;;39.53;;
36315;SDS011;22343;50.820;2.666;2023-04-09T02:41:41;399.73;;;43.40;;
36315;SDS011;22343;50.820;2.666;2023-04-09T02:44:26;199.87;;;37.97;;
36315;SDS011;22343;50.820;2.666;2023-04-09T02:47:10;219.27;;;38.80;;
36315;SDS011;22343;50.820;2.666;2023-04-09T02:49:55;204.93;;;37.97;;
36315;SDS011;22343;50.820;2.666;2023-04-09T02:52:39;125.77;;;35.47;;
36315;SDS011;22343;50.820;2.666;2023-04-09T02:55:23;294.10;;;39.67;;
36315;SDS011;22343;50.820;2.666;2023-04-09T02:58:08;256.80;;;39.30;;
36315;SDS011;22343;50.820;2.666;2023-04-09T03:00:52;353.53;;;41.87;;
36315;SDS011;22343;50.820;2.666;2023-04-09T03:03:36;260.60;;;39.47;;
36315;SDS011;22343;50.820;2.666;2023-04-09T03:06:22;187.97;;;37.73;;
36315;SDS011;22343;50.820;2.666;2023-04-09T03:09:07;351.93;;;43.23;;
36315;SDS011;22343;50.820;2.666;2023-04-09T03:11:51;261.70;;;39.37;;
36315;SDS011;22343;50.820;2.666;2023-04-09T03:14:35;222.63;;;38.83;;
36315;SDS011;22343;50.820;2.666;2023-04-09T03:17:19;181.90;;;35.87;;
36315;SDS011;22343;50.820;2.666;2023-04-09T03:20:05;142.23;;;35.00;;
36315;SDS011;22343;50.820;2.666;2023-04-09T03:22:50;169.10;;;35.40;;
36315;SDS011;22343;50.820;2.666;2023-04-09T03:25:34;178.60;;;35.17;;
36315;SDS011;22343;50.820;2.666;2023-04-09T03:28:19;187.83;;;35.23;;
36315;SDS011;22343;50.820;2.666;2023-04-09T03:31:03;188.93;;;35.67;;
36315;SDS011;22343;50.820;2.666;2023-04-09T03:33:47;200.67;;;34.40;;
36315;SDS011;22343;50.820;2.666;2023-04-09T03:36:32;167.93;;;33.77;;
36315;SDS011;22343;50.820;2.666;2023-04-09T03:39:16;170.63;;;35.03;;
36315;SDS011;22343;50.820;2.666;2023-04-09T03:42:00;186.87;;;36.33;;
36315;SDS011;22343;50.820;2.666;2023-04-09T03:44:45;190.13;;;35.93;;
36315;SDS011;22343;50.820;2.666;2023-04-09T03:47:29;214.60;;;35.90;;
36315;SDS011;22343;50.820;2.666;2023-04-09T03:50:14;231.50;;;36.73;;
36315;SDS011;22343;50.820;2.666;2023-04-09T03:52:58;229.60;;;35.10;;
36315;SDS011;22343;50.820;2.666;2023-04-09T03:55:44;192.03;;;35.13;;
36315;SDS011;22343;50.820;2.666;2023-04-09T03:58:29;241.63;;;35.53;;
36315;SDS011;22343;50.820;2.666;2023-04-09T04:01:13;193.13;;;35.27;;
36315;SDS011;22343;50.820;2.666;2023-04-09T04:03:58;183.73;;;33.67;;
36315;SDS011;22343;50.820;2.666;2023-04-09T04:06:42;177.83;;;35.37;;
36315;SDS011;22343;50.820;2.666;2023-04-09T04:09:26;240.23;;;36.60;;
36315;SDS011;22343;50.820;2.666;2023-04-09T04:12:11;215.87;;;36.30;;
36315;SDS011;22343;50.820;2.666;2023-04-09T04:14:55;213.47;;;35.63;;
36315;SDS011;22343;50.820;2.666;2023-04-09T04:17:39;246.97;;;38.07;;
36315;SDS011;22343;50.820;2.666;2023-04-09T04:20:23;288.27;;;38.97;;
36315;SDS011;22343;50.820;2.666;2023-04-09T04:23:08;162.97;;;35.97;;
36315;SDS011;22343;50.820;2.666;2023-04-09T04:25:52;297.10;;;38.60;;
36315;SDS011;22343;50.820;2.666;2023-04-09T04:28:37;124.37;;;33.40;;
36315;SDS011;22343;50.820;2.666;2023-04-09T04:31:22;326.00;;;40.10;;
36315;SDS011;22343;50.820;2.666;2023-04-09T04:34:06;192.10;;;38.33;;
36315;SDS011;22343;50.820;2.666;2023-04-09T04:36:50;326.80;;;41.77;;
36315;SDS011;22343;50.820;2.666;2023-04-09T04:39:35;278.10;;;38.57;;
36315;SDS011;22343;50.820;2.666;2023-04-09T04:42:19;232.30;;;38.50;;
36315;SDS011;22343;50.820;2.666;2023-04-09T04:45:04;204.70;;;35.03;;
36315;SDS011;22343;50.820;2.666;2023-04-09T04:47:48;365.30;;;41.47;;
36315;SDS011;22343;50.820;2.666;2023-04-09T04:50:32;227.50;;;37.70;;
36315;SDS011;22343;50.820;2.666;2023-04-09T04:53:17;184.80;;;35.23;;
36315;SDS011;22343;50.820;2.666;2023-04-09T04:56:01;190.83;;;36.37;;
36315;SDS011;22343;50.820;2.666;2023-04-09T04:58:45;152.97;;;35.57;;
36315;SDS011;22343;50.820;2.666;2023-04-09T05:01:30;179.77;;;35.43;;
36315;SDS011;22343;50.820;2.666;2023-04-09T05:04:14;149.87;;;35.77;;
36315;SDS011;22343;50.820;2.666;2023-04-09T05:06:59;208.80;;;36.43;;
36315;SDS011;22343;50.820;2.666;2023-04-09T05:09:44;251.87;;;38.03;;
36315;SDS011;22343;50.820;2.666;2023-04-09T05:12:31;321.43;;;40.03;;
36315;SDS011;22343;50.820;2.666;2023-04-09T05:15:16;178.37;;;35.20;;
36315;SDS011;22343;50.820;2.666;2023-04-09T05:18:01;228.53;;;37.33;;
36315;SDS011;22343;50.820;2.666;2023-04-09T05:20:45;256.13;;;38.60;;
36315;SDS011;22343;50.820;2.666;2023-04-09T05:23:29;246.03;;;37.80;;
36315;SDS011;22343;50.820;2.666;2023-04-09T05:26:13;200.03;;;35.97;;
36315;SDS011;22343;50.820;2.666;2023-04-09T05:28:58;194.93;;;36.30;;
36315;SDS011;22343;50.820;2.666;2023-04-09T05:31:42;306.33;;;38.70;;
36315;SDS011;22343;50.820;2.666;2023-04-09T05:34:27;187.80;;;34.93;;
36315;SDS011;22343;50.820;2.666;2023-04-09T05:37:11;157.63;;;33.47;;
36315;SDS011;22343;50.820;2.666;2023-04-09T05:39:56;277.63;;;37.50;;
36315;SDS011;22343;50.820;2.666;2023-04-09T05:42:40;121.77;;;32.03;;
36315;SDS011;22343;50.820;2.666;2023-04-09T05:45:25;172.00;;;34.43;;
36315;SDS011;22343;50.820;2.666;2023-04-09T05:48:11;186.40;;;35.00;;
36315;SDS011;22343;50.820;2.666;2023-04-09T05:50:56;171.63;;;34.63;;
36315;SDS011;22343;50.820;2.666;2023-04-09T05:53:40;136.00;;;34.03;;
36315;SDS011;22343;50.820;2.666;2023-04-09T05:56:25;132.83;;;33.17;;
36315;SDS011;22343;50.820;2.666;2023-04-09T05:59:10;147.73;;;34.30;;
36315;SDS011;22343;50.820;2.666;2023-04-09T06:01:55;112.77;;;33.70;;
36315;SDS011;22343;50.820;2.666;2023-04-09T06:04:40;115.57;;;34.43;;
36315;SDS011;22343;50.820;2.666;2023-04-09T06:07:24;235.87;;;36.83;;
36315;SDS011;22343;50.820;2.666;2023-04-09T06:10:08;100.50;;;31.70;;
36315;SDS011;22343;50.820;2.666;2023-04-09T06:12:53;101.93;;;31.17;;
36315;SDS011;22343;50.820;2.666;2023-04-09T06:15:37;119.13;;;32.33;;
36315;SDS011;22343;50.820;2.666;2023-04-09T06:18:22;127.33;;;30.83;;
36315;SDS011;22343;50.820;2.666;2023-04-09T06:21:07;91.70;;;29.80;;
36315;SDS011;22343;50.820;2.666;2023-04-09T06:23:51;144.17;;;30.53;;
36315;SDS011;22343;50.820;2.666;2023-04-09T06:26:36;170.30;;;30.97;;
36315;SDS011;22343;50.820;2.666;2023-04-09T06:29:20;157.87;;;30.73;;
36315;SDS011;22343;50.820;2.666;2023-04-09T06:32:04;94.27;;;29.57;;
36315;SDS011;22343;50.820;2.666;2023-04-09T06:34:49;123.47;;;31.10;;
36315;SDS011;22343;50.820;2.666;2023-04-09T06:37:33;88.40;;;30.30;;
36315;SDS011;22343;50.820;2.666;2023-04-09T06:40:18;101.00;;;31.13;;
36315;SDS011;22343;50.820;2.666;2023-04-09T06:43:03;87.47;;;30.80;;
36315;SDS011;22343;50.820;2.666;2023-04-09T06:45:48;94.27;;;31.00;;
36315;SDS011;22343;50.820;2.666;2023-04-09T06:48:33;85.47;;;30.37;;
36315;SDS011;22343;50.820;2.666;2023-04-09T06:51:18;61.40;;;30.13;;
36315;SDS011;22343;50.820;2.666;2023-04-09T06:54:02;74.20;;;28.27;;
36315;SDS011;22343;50.820;2.666;2023-04-09T06:56:46;67.60;;;29.87;;
36315;SDS011;22343;50.820;2.666;2023-04-09T06:59:31;61.30;;;29.20;;
36315;SDS011;22343;50.820;2.666;2023-04-09T07:02:16;62.00;;;28.57;;
36315;SDS011;22343;50.820;2.666;2023-04-09T07:05:01;58.53;;;27.90;;
36315;SDS011;22343;50.820;2.666;2023-04-09T07:07:47;80.00;;;29.23;;
36315;SDS011;22343;50.820;2.666;2023-04-09T07:10:31;68.67;;;30.03;;
36315;SDS011;22343;50.820;2.666;2023-04-09T07:13:15;48.67;;;30.20;;
36315;SDS011;22343;50.820;2.666;2023-04-09T07:16:00;48.20;;;29.27;;
36315;SDS011;22343;50.820;2.666;2023-04-09T07:18:44;73.50;;;30.00;;
36315;SDS011;22343;50.820;2.666;2023-04-09T07:21:30;51.67;;;29.07;;
36315;SDS011;22343;50.820;2.666;2023-04-09T07:24:15;49.30;;;30.07;;
36315;SDS011;22343;50.820;2.666;2023-04-09T07:27:02;58.63;;;30.00;;
36315;SDS011;22343;50.820;2.666;2023-04-09T07:29:47;47.10;;;29.53;;
36315;SDS011;22343;50.820;2.666;2023-04-09T07:32:31;51.87;;;32.17;;
36315;SDS011;22343;50.820;2.666;2023-04-09T07:35:16;47.53;;;32.60;;
36315;SDS011;22343;50.820;2.666;2023-04-09T07:38:01;63.87;;;32.57;;
36315;SDS011;22343;50.820;2.666;2023-04-09T07:40:46;64.63;;;33.80;;
36315;SDS011;22343;50.820;2.666;2023-04-09T07:43:31;61.10;;;34.47;;
36315;SDS011;22343;50.820;2.666;2023-04-09T07:46:19;54.20;;;34.13;;
36315;SDS011;22343;50.820;2.666;2023-04-09T07:49:04;52.73;;;33.57;;
36315;SDS011;22343;50.820;2.666;2023-04-09T07:51:49;56.53;;;35.33;;
36315;SDS011;22343;50.820;2.666;2023-04-09T07:54:34;53.20;;;33.33;;
36315;SDS011;22343;50.820;2.666;2023-04-09T07:57:18;54.97;;;33.77;;
36315;SDS011;22343;50.820;2.666;2023-04-09T08:00:03;55.63;;;35.47;;
36315;SDS011;22343;50.820;2.666;2023-04-09T08:02:48;60.07;;;35.20;;
36315;SDS011;22343;50.820;2.666;2023-04-09T08:05:33;53.03;;;35.77;;
36315;SDS011;22343;50.820;2.666;2023-04-09T08:08:18;52.63;;;34.30;;
36315;SDS011;22343;50.820;2.666;2023-04-09T08:11:03;52.63;;;36.77;;
36315;SDS011;22343;50.820;2.666;2023-04-09T08:13:47;52.00;;;36.77;;
36315;SDS011;22343;50.820;2.666;2023-04-09T08:16:32;53.30;;;38.77;;
36315;SDS011;22343;50.820;2.666;2023-04-09T08:19:16;50.97;;;36.53;;
36315;SDS011;22343;50.820;2.666;2023-04-09T08:22:01;52.80;;;37.87;;
36315;SDS011;22343;50.820;2.666;2023-04-09T08:24:49;50.03;;;36.83;;
36315;SDS011;22343;50.820;2.666;2023-04-09T08:27:35;51.43;;;37.00;;
36315;SDS011;22343;50.820;2.666;2023-04-09T08:30:20;51.13;;;35.43;;
36315;SDS011;22343;50.820;2.666;2023-04-09T08:33:04;50.07;;;35.37;;
36315;SDS011;22343;50.820;2.666;2023-04-09T08:35:49;47.30;;;35.53;;
36315;SDS011;22343;50.820;2.666;2023-04-09T08:38:33;53.67;;;37.07;;
36315;SDS011;22343;50.820;2.666;2023-04-09T08:41:18;49.67;;;37.17;;
36315;SDS011;22343;50.820;2.666;2023-04-09T08:44:03;51.07;;;36.93;;
36315;SDS011;22343;50.820;2.666;2023-04-09T08:46:48;53.73;;;38.23;;
36315;SDS011;22343;50.820;2.666;2023-04-09T08:49:32;49.83;;;35.50;;
36315;SDS011;22343;50.820;2.666;2023-04-09T08:52:18;51.83;;;37.07;;
36315;SDS011;22343;50.820;2.666;2023-04-09T08:55:04;48.83;;;36.33;;
36315;SDS011;22343;50.820;2.666;2023-04-09T08:57:50;49.40;;;35.47;;
36315;SDS011;22343;50.820;2.666;2023-04-09T09:00:34;48.50;;;35.93;;
36315;SDS011;22343;50.820;2.666;2023-04-09T09:03:18;49.90;;;35.80;;
36315;SDS011;22343;50.820;2.666;2023-04-09T09:06:03;49.13;;;37.10;;
36315;SDS011;22343;50.820;2.666;2023-04-09T09:11:54;48.70;;;35.73;;
36315;SDS011;22343;50.820;2.666;2023-04-09T09:14:38;48.47;;;35.73;;
36315;SDS011;22343;50.820;2.666;2023-04-09T09:17:23;47.77;;;35.80;;
36315;SDS011;22343;50.820;2.666;2023-04-09T09:20:19;49.20;;;36.70;;
36315;SDS011;22343;50.820;2.666;2023-04-09T09:23:04;45.63;;;34.60;;
36315;SDS011;22343;50.820;2.666;2023-04-09T09:25:48;44.97;;;33.63;;
36315;SDS011;22343;50.820;2.666;2023-04-09T09:28:33;45.63;;;34.40;;
36315;SDS011;22343;50.820;2.666;2023-04-09T09:31:19;45.93;;;34.87;;
36315;SDS011;22343;50.820;2.666;2023-04-09T09:34:07;47.50;;;35.93;;
36315;SDS011;22343;50.820;2.666;2023-04-09T09:36:52;46.27;;;34.30;;
36315;SDS011;22343;50.820;2.666;2023-04-09T09:39:42;45.27;;;34.17;;
36315;SDS011;22343;50.820;2.666;2023-04-09T09:42:30;45.17;;;33.87;;
36315;SDS011;22343;50.820;2.666;2023-04-09T09:45:16;42.57;;;32.77;;
36315;SDS011;22343;50.820;2.666;2023-04-09T09:48:03;46.50;;;32.67;;
36315;SDS011;22343;50.820;2.666;2023-04-09T09:50:48;41.83;;;31.73;;
36315;SDS011;22343;50.820;2.666;2023-04-09T09:53:35;41.93;;;32.30;;
36315;SDS011;22343;50.820;2.666;2023-04-09T09:56:23;44.73;;;32.73;;
36315;SDS011;22343;50.820;2.666;2023-04-09T09:59:19;46.77;;;33.33;;
36315;SDS011;22343;50.820;2.666;2023-04-09T10:02:05;42.17;;;31.13;;
36315;SDS011;22343;50.820;2.666;2023-04-09T10:04:55;44.47;;;32.43;;
36315;SDS011;22343;50.820;2.666;2023-04-09T10:07:42;44.83;;;32.80;;
36315;SDS011;22343;50.820;2.666;2023-04-09T10:10:29;45.93;;;32.97;;
36315;SDS011;22343;50.820;2.666;2023-04-09T10:13:25;48.03;;;34.90;;
36315;SDS011;22343;50.820;2.666;2023-04-09T10:16:16;48.67;;;36.23;;
36315;SDS011;22343;50.820;2.666;2023-04-09T10:19:02;51.20;;;36.50;;
36315;SDS011;22343;50.820;2.666;2023-04-09T10:24:37;48.43;;;35.60;;
36315;SDS011;22343;50.820;2.666;2023-04-09T10:27:22;46.50;;;35.80;;
36315;SDS011;22343;50.820;2.666;2023-04-09T10:30:33;46.27;;;34.47;;
36315;SDS011;22343;50.820;2.666;2023-04-09T10:33:22;46.87;;;34.93;;
36315;SDS011;22343;50.820;2.666;2023-04-09T10:36:11;47.57;;;34.40;;
36315;SDS011;22343;50.820;2.666;2023-04-09T10:38:57;42.87;;;33.20;;
36315;SDS011;22343;50.820;2.666;2023-04-09T10:41:43;44.20;;;33.17;;
36315;SDS011;22343;50.820;2.666;2023-04-09T10:44:31;47.13;;;35.83;;
36315;SDS011;22343;50.820;2.666;2023-04-09T10:47:30;40.67;;;32.37;;
36315;SDS011;22343;50.820;2.666;2023-04-09T10:53:24;42.87;;;32.40;;
36315;SDS011;22343;50.820;2.666;2023-04-09T10:56:16;37.50;;;30.83;;
36315;SDS011;22343;50.820;2.666;2023-04-09T10:59:02;38.63;;;30.67;;
36315;SDS011;22343;50.820;2.666;2023-04-09T11:01:54;41.63;;;31.77;;
36315;SDS011;22343;50.820;2.666;2023-04-09T11:08:11;37.80;;;29.77;;
36315;SDS011;22343;50.820;2.666;2023-04-09T11:10:57;38.57;;;29.10;;
36315;SDS011;22343;50.820;2.666;2023-04-09T11:13:45;38.92;;;31.20;;
36315;SDS011;22343;50.820;2.666;2023-04-09T11:16:29;38.33;;;30.38;;
36315;SDS011;22343;50.820;2.666;2023-04-09T11:19:14;40.30;;;31.10;;
36315;SDS011;22343;50.820;2.666;2023-04-09T11:22:02;37.57;;;30.37;;
36315;SDS011;22343;50.820;2.666;2023-04-09T11:24:51;38.70;;;30.55;;
36315;SDS011;22343;50.820;2.666;2023-04-09T11:27:38;41.63;;;31.52;;
36315;SDS011;22343;50.820;2.666;2023-04-09T11:30:25;42.15;;;33.00;;
36315;SDS011;22343;50.820;2.666;2023-04-09T11:33:10;40.03;;;31.83;;
36315;SDS011;22343;50.820;2.666;2023-04-09T11:35:57;40.45;;;31.55;;
36315;SDS011;22343;50.820;2.666;2023-04-09T11:38:43;40.72;;;31.10;;
36315;SDS011;22343;50.820;2.666;2023-04-09T11:41:36;37.88;;;30.95;;
36315;SDS011;22343;50.820;2.666;2023-04-09T11:44:22;38.15;;;30.33;;
36315;SDS011;22343;50.820;2.666;2023-04-09T11:47:09;39.05;;;31.50;;
36315;SDS011;22343;50.820;2.666;2023-04-09T11:49:55;38.22;;;30.23;;
36315;SDS011;22343;50.820;2.666;2023-04-09T11:52:40;38.80;;;30.15;;
36315;SDS011;22343;50.820;2.666;2023-04-09T11:55:26;36.58;;;29.48;;
36315;SDS011;22343;50.820;2.666;2023-04-09T11:58:11;36.40;;;29.15;;
36315;SDS011;22343;50.820;2.666;2023-04-09T12:00:59;37.67;;;29.75;;
36315;SDS011;22343;50.820;2.666;2023-04-09T12:03:43;35.63;;;28.95;;
36315;SDS011;22343;50.820;2.666;2023-04-09T12:06:28;34.03;;;27.52;;
36315;SDS011;22343;50.820;2.666;2023-04-09T12:09:13;35.63;;;28.27;;
36315;SDS011;22343;50.820;2.666;2023-04-09T12:11:59;35.55;;;28.42;;
36315;SDS011;22343;50.820;2.666;2023-04-09T12:14:45;34.20;;;27.80;;
36315;SDS011;22343;50.820;2.666;2023-04-09T12:17:30;36.92;;;28.95;;
36315;SDS011;22343;50.820;2.666;2023-04-09T12:20:30;31.42;;;25.85;;
36315;SDS011;22343;50.820;2.666;2023-04-09T12:23:18;30.10;;;23.98;;
36315;SDS011;22343;50.820;2.666;2023-04-09T12:26:03;31.13;;;25.17;;
36315;SDS011;22343;50.820;2.666;2023-04-09T12:28:48;32.00;;;26.40;;
36315;SDS011;22343;50.820;2.666;2023-04-09T12:31:32;28.77;;;25.52;;
36315;SDS011;22343;50.820;2.666;2023-04-09T12:34:16;31.10;;;24.95;;
36315;SDS011;22343;50.820;2.666;2023-04-09T12:37:00;28.65;;;23.48;;
36315;SDS011;22343;50.820;2.666;2023-04-09T12:39:45;27.88;;;23.58;;
36315;SDS011;22343;50.820;2.666;2023-04-09T12:42:30;29.60;;;23.35;;
36315;SDS011;22343;50.820;2.666;2023-04-09T12:45:16;31.27;;;24.30;;
36315;SDS011;22343;50.820;2.666;2023-04-09T12:48:01;27.27;;;22.50;;
36315;SDS011;22343;50.820;2.666;2023-04-09T12:50:46;29.27;;;23.30;;
36315;SDS011;22343;50.820;2.666;2023-04-09T12:53:30;29.08;;;24.02;;
36315;SDS011;22343;50.820;2.666;2023-04-09T12:56:15;27.73;;;23.15;;
36315;SDS011;22343;50.820;2.666;2023-04-09T12:58:59;28.80;;;23.88;;
36315;SDS011;22343;50.820;2.666;2023-04-09T13:01:43;28.10;;;22.70;;
36315;SDS011;22343;50.820;2.666;2023-04-09T13:04:28;26.15;;;22.35;;
36315;SDS011;22343;50.820;2.666;2023-04-09T13:07:13;24.83;;;20.45;;
36315;SDS011;22343;50.820;2.666;2023-04-09T13:10:00;23.58;;;19.73;;
36315;SDS011;22343;50.820;2.666;2023-04-09T13:12:44;24.02;;;19.75;;
36315;SDS011;22343;50.820;2.666;2023-04-09T13:15:29;24.75;;;19.55;;
36315;SDS011;22343;50.820;2.666;2023-04-09T13:18:13;25.13;;;20.85;;
36315;SDS011;22343;50.820;2.666;2023-04-09T13:20:57;20.48;;;16.52;;
36315;SDS011;22343;50.820;2.666;2023-04-09T13:23:41;20.90;;;17.50;;
36315;SDS011;22343;50.820;2.666;2023-04-09T13:26:26;23.15;;;18.95;;
36315;SDS011;22343;50.820;2.666;2023-04-09T13:29:10;22.65;;;18.27;;
36315;SDS011;22343;50.820;2.666;2023-04-09T13:31:55;21.52;;;17.65;;
36315;SDS011;22343;50.820;2.666;2023-04-09T13:34:40;24.60;;;20.92;;
36315;SDS011;22343;50.820;2.666;2023-04-09T13:37:24;24.08;;;20.17;;
36315;SDS011;22343;50.820;2.666;2023-04-09T13:40:09;25.27;;;20.20;;
36315;SDS011;22343;50.820;2.666;2023-04-09T13:42:54;24.33;;;19.60;;
36315;SDS011;22343;50.820;2.666;2023-04-09T13:45:39;23.88;;;18.80;;
36315;SDS011;22343;50.820;2.666;2023-04-09T13:48:24;22.23;;;19.13;;
36315;SDS011;22343;50.820;2.666;2023-04-09T13:51:09;23.60;;;19.98;;
36315;SDS011;22343;50.820;2.666;2023-04-09T13:53:54;25.50;;;19.88;;
36315;SDS011;22343;50.820;2.666;2023-04-09T13:56:39;22.90;;;20.08;;
36315;SDS011;22343;50.820;2.666;2023-04-09T13:59:25;24.50;;;20.17;;
36315;SDS011;22343;50.820;2.666;2023-04-09T14:02:10;24.40;;;20.45;;
36315;SDS011;22343;50.820;2.666;2023-04-09T14:04:55;23.00;;;20.48;;
36315;SDS011;22343;50.820;2.666;2023-04-09T14:07:41;22.58;;;19.15;;
36315;SDS011;22343;50.820;2.666;2023-04-09T14:10:27;22.85;;;19.33;;
36315;SDS011;22343;50.820;2.666;2023-04-09T14:13:12;21.55;;;18.52;;
36315;SDS011;22343;50.820;2.666;2023-04-09T14:15:58;22.55;;;18.02;;
36315;SDS011;22343;50.820;2.666;2023-04-09T14:18:43;20.05;;;17.17;;
36315;SDS011;22343;50.820;2.666;2023-04-09T14:21:29;24.23;;;18.80;;
36315;SDS011;22343;50.820;2.666;2023-04-09T14:24:15;23.52;;;19.42;;
36315;SDS011;22343;50.820;2.666;2023-04-09T14:26:59;22.83;;;19.23;;
36315;SDS011;22343;50.820;2.666;2023-04-09T14:29:46;22.60;;;18.88;;
36315;SDS011;22343;50.820;2.666;2023-04-09T14:32:32;19.70;;;17.00;;
36315;SDS011;22343;50.820;2.666;2023-04-09T14:35:18;18.58;;;16.13;;
36315;SDS011;22343;50.820;2.666;2023-04-09T14:38:04;17.75;;;14.68;;
36315;SDS011;22343;50.820;2.666;2023-04-09T14:40:50;17.13;;;14.65;;
36315;SDS011;22343;50.820;2.666;2023-04-09T14:43:34;16.02;;;14.15;;
36315;SDS011;22343;50.820;2.666;2023-04-09T14:46:20;16.50;;;14.73;;
36315;SDS011;22343;50.820;2.666;2023-04-09T14:49:06;19.50;;;16.20;;
36315;SDS011;22343;50.820;2.666;2023-04-09T14:51:52;18.40;;;15.30;;
36315;SDS011;22343;50.820;2.666;2023-04-09T14:54:40;16.92;;;15.13;;
36315;SDS011;22343;50.820;2.666;2023-04-09T14:57:26;17.67;;;15.73;;
36315;SDS011;22343;50.820;2.666;2023-04-09T15:00:13;17.65;;;15.13;;
36315;SDS011;22343;50.820;2.666;2023-04-09T15:03:01;18.02;;;14.63;;
36315;SDS011;22343;50.820;2.666;2023-04-09T15:05:47;17.55;;;14.75;;
36315;SDS011;22343;50.820;2.666;2023-04-09T15:08:32;17.90;;;14.32;;
36315;SDS011;22343;50.820;2.666;2023-04-09T15:11:20;17.95;;;15.65;;
36315;SDS011;22343;50.820;2.666;2023-04-09T15:14:08;18.05;;;16.08;;
36315;SDS011;22343;50.820;2.666;2023-04-09T15:16:52;19.10;;;16.23;;
36315;SDS011;22343;50.820;2.666;2023-04-09T15:19:41;18.60;;;15.43;;
36315;SDS011;22343;50.820;2.666;2023-04-09T15:22:27;17.63;;;15.73;;
36315;SDS011;22343;50.820;2.666;2023-04-09T15:25:13;17.42;;;15.50;;
36315;SDS011;22343;50.820;2.666;2023-04-09T15:27:58;16.42;;;14.63;;
36315;SDS011;22343;50.820;2.666;2023-04-09T15:30:43;17.13;;;15.20;;
36315;SDS011;22343;50.820;2.666;2023-04-09T15:33:28;16.25;;;13.98;;
36315;SDS011;22343;50.820;2.666;2023-04-09T15:36:15;16.55;;;13.48;;
36315;SDS011;22343;50.820;2.666;2023-04-09T15:39:01;16.48;;;13.43;;
36315;SDS011;22343;50.820;2.666;2023-04-09T15:41:48;16.05;;;13.43;;
36315;SDS011;22343;50.820;2.666;2023-04-09T15:44:34;14.73;;;12.77;;
36315;SDS011;22343;50.820;2.666;2023-04-09T15:47:18;14.82;;;13.32;;
36315;SDS011;22343;50.820;2.666;2023-04-09T15:50:04;15.40;;;13.73;;
36315;SDS011;22343;50.820;2.666;2023-04-09T15:52:50;16.05;;;13.68;;
36315;SDS011;22343;50.820;2.666;2023-04-09T15:55:36;15.27;;;13.40;;
36315;SDS011;22343;50.820;2.666;2023-04-09T15:58:22;14.45;;;12.95;;
36315;SDS011;22343;50.820;2.666;2023-04-09T16:01:08;16.70;;;13.40;;
36315;SDS011;22343;50.820;2.666;2023-04-09T16:03:54;17.35;;;13.20;;
36315;SDS011;22343;50.820;2.666;2023-04-09T16:06:39;14.85;;;13.05;;
36315;SDS011;22343;50.820;2.666;2023-04-09T16:09:23;14.57;;;12.75;;
36315;SDS011;22343;50.820;2.666;2023-04-09T16:12:09;13.85;;;12.40;;
36315;SDS011;22343;50.820;2.666;2023-04-09T16:14:55;13.10;;;11.73;;
36315;SDS011;22343;50.820;2.666;2023-04-09T16:17:40;12.70;;;11.32;;
36315;SDS011;22343;50.820;2.666;2023-04-09T16:20:24;12.43;;;10.98;;
36315;SDS011;22343;50.820;2.666;2023-04-09T16:23:09;13.73;;;10.80;;
36315;SDS011;22343;50.820;2.666;2023-04-09T16:25:55;13.25;;;11.50;;